createdAt,value
2023-01-08T00:03:51.601Z,95.5
2023-01-08T00:08:57.693Z,95.5
2023-01-08T00:14:03.784Z,96
2023-01-08T00:19:08.897Z,95
2023-01-08T00:24:15.003Z,93
2023-01-08T00:29:21.086Z,92
2023-01-08T00:34:27.194Z,92
2023-01-08T00:39:33.269Z,92
2023-01-08T00:44:39.369Z,92
2023-01-08T00:49:45.463Z,92
2023-01-08T00:54:51.565Z,92
2023-01-08T00:59:57.663Z,91
2023-01-08T01:05:03.756Z,90.5
2023-01-08T01:10:09.849Z,90.5
2023-01-08T01:15:15.957Z,91.5
2023-01-08T01:20:22.062Z,92.5
2023-01-08T01:25:27.149Z,91.5
2023-01-08T01:30:33.303Z,90.5
2023-01-08T01:35:39.362Z,90.5
2023-01-08T01:40:45.451Z,90.5
2023-01-08T01:45:51.541Z,91
2023-01-08T01:50:57.641Z,91
2023-01-08T01:56:03.736Z,90.5
2023-01-08T02:01:09.830Z,89.5
2023-01-08T02:06:15.919Z,89
2023-01-08T02:11:22.022Z,89.5
2023-01-08T02:16:28.113Z,90
2023-01-08T02:21:34.196Z,90
2023-01-08T02:26:40.331Z,91
2023-01-08T02:31:45.444Z,92
2023-01-08T02:36:51.518Z,92
2023-01-08T02:41:57.605Z,91
2023-01-08T02:47:03.706Z,89.5
2023-01-08T02:52:09.813Z,87.5
2023-01-08T02:57:15.904Z,86
2023-01-08T03:02:22.025Z,85.5
2023-01-08T03:07:28.093Z,85.5
2023-01-08T03:12:34.190Z,86
2023-01-08T03:17:40.293Z,86
2023-01-08T03:22:46.369Z,85.5
2023-01-08T03:27:52.469Z,85.5
2023-01-08T03:32:58.569Z,86
2023-01-08T03:38:03.716Z,85.5
2023-01-08T03:43:09.780Z,86
2023-01-08T03:48:15.882Z,85.5
2023-01-08T03:53:21.968Z,85
2023-01-08T03:58:28.058Z,85.5
2023-01-08T04:03:34.168Z,85
2023-01-08T04:08:40.247Z,85
2023-01-08T04:13:46.356Z,84.5
2023-01-08T04:18:52.470Z,83.5
2023-01-08T04:23:58.547Z,83
2023-01-08T04:29:04.649Z,83.5
2023-01-08T04:34:10.743Z,83.5
2023-01-08T04:39:16.839Z,83.5
2023-01-08T04:44:21.948Z,83.5
2023-01-08T04:49:28.023Z,84
2023-01-08T04:54:34.137Z,83.5
2023-01-08T04:59:40.237Z,84
2023-01-08T05:04:46.317Z,84
2023-01-08T05:09:52.416Z,85
2023-01-08T05:14:58.528Z,84.5
2023-01-08T05:20:04.615Z,85
2023-01-08T05:25:10.710Z,85
2023-01-08T05:30:16.812Z,85
2023-01-08T05:35:22.900Z,84.5
2023-01-08T05:40:29.006Z,85
2023-01-08T05:45:35.092Z,86
2023-01-08T05:50:40.201Z,86.5
2023-01-08T05:55:46.300Z,87
2023-01-08T06:00:52.391Z,87
2023-01-08T06:05:58.491Z,87
2023-01-08T06:11:04.575Z,87
2023-01-08T06:16:10.674Z,87
2023-01-08T06:21:15.789Z,87
2023-01-08T06:26:21.886Z,86.5
2023-01-08T06:31:27.986Z,85.5
2023-01-08T06:36:34.086Z,85.5
2023-01-08T06:41:40.184Z,85.5
2023-01-08T06:46:46.264Z,86
2023-01-08T06:51:52.371Z,86
2023-01-08T06:56:58.470Z,86.5
2023-01-08T07:02:04.561Z,86.5
2023-01-08T07:07:10.676Z,87
2023-01-08T07:12:16.755Z,87
2023-01-08T07:17:22.841Z,87
2023-01-08T07:22:28.960Z,87
2023-01-08T07:27:34.068Z,87
2023-01-08T07:32:40.151Z,87
2023-01-08T07:37:46.259Z,87
2023-01-08T07:42:52.336Z,87
2023-01-08T07:47:58.432Z,87.5
2023-01-08T07:53:04.570Z,87.5
2023-01-08T07:58:10.629Z,88
2023-01-08T08:03:16.731Z,88
2023-01-08T08:08:22.832Z,88.5
2023-01-08T08:13:28.921Z,88.5
2023-01-08T08:18:35.020Z,89.5
2023-01-08T08:23:41.112Z,90
2023-01-08T08:28:47.258Z,90
2023-01-08T08:33:52.334Z,90.5
2023-01-08T08:38:58.463Z,91.5
2023-01-08T08:44:04.497Z,91.5
2023-01-08T08:49:10.606Z,92
2023-01-08T08:54:16.684Z,93.5
2023-01-08T08:59:22.793Z,94.5
2023-01-08T09:04:28.900Z,94.5
2023-01-08T09:09:35.046Z,94
2023-01-08T09:14:41.078Z,93.5
2023-01-08T09:19:47.167Z,94.5
2023-01-08T09:24:53.277Z,94
2023-01-08T09:29:59.375Z,93.5
2023-01-08T09:35:05.488Z,94
2023-01-08T09:40:10.598Z,93.5
2023-01-08T09:45:16.657Z,92.5
2023-01-08T09:50:22.785Z,91.5
2023-01-08T09:55:28.890Z,90.5
2023-01-08T10:00:34.979Z,90
2023-01-08T10:05:41.058Z,90
2023-01-08T10:10:47.138Z,89
2023-01-08T10:15:53.231Z,89
2023-01-08T10:20:59.390Z,89
2023-01-08T10:26:05.443Z,87.5
2023-01-08T10:31:11.539Z,88
2023-01-08T10:36:17.624Z,87
2023-01-08T10:41:23.708Z,87
2023-01-08T10:46:28.871Z,85.5
2023-01-08T10:51:34.982Z,84
2023-01-08T10:56:41.049Z,84
2023-01-08T11:01:47.151Z,83.5
2023-01-08T11:06:53.211Z,83.5
2023-01-08T11:11:59.307Z,83.5
2023-01-08T11:17:05.398Z,83.5
2023-01-08T11:22:11.494Z,83.5
2023-01-08T11:27:17.604Z,83
2023-01-08T11:32:23.681Z,84.5
2023-01-08T11:37:29.786Z,84.5
2023-01-08T11:42:35.963Z,84
2023-01-08T11:47:42.000Z,84.5
2023-01-08T11:52:47.087Z,86.5
2023-01-08T11:57:53.195Z,86.5
2023-01-08T12:02:59.272Z,86
2023-01-08T12:08:05.388Z,86
2023-01-08T12:13:11.471Z,85
2023-01-08T12:18:17.552Z,84
2023-01-08T12:23:23.703Z,83.5
2023-01-08T12:28:29.756Z,84
2023-01-08T12:33:35.849Z,84
2023-01-08T12:38:41.932Z,84.5
2023-01-08T12:43:48.043Z,84.5
2023-01-08T12:48:54.137Z,85
2023-01-08T12:54:00.240Z,85
2023-01-08T12:59:05.332Z,86.5
2023-01-08T13:04:11.448Z,87
2023-01-08T13:09:17.534Z,86
2023-01-08T13:14:23.645Z,86
2023-01-08T13:19:29.801Z,85.5
2023-01-08T13:29:41.905Z,84.5
2023-01-08T13:34:48.023Z,84.5
2023-01-08T13:39:54.103Z,84
2023-01-08T13:45:00.232Z,84
2023-01-08T13:50:06.289Z,83.5
2023-01-08T13:55:12.379Z,84
2023-01-08T14:00:18.474Z,84.5
2023-01-08T14:05:23.593Z,84.5
2023-01-08T14:10:29.705Z,83.5
2023-01-08T14:15:35.776Z,83.5
2023-01-08T14:20:41.884Z,83.5
2023-01-08T14:25:47.974Z,82
2023-01-08T14:30:54.122Z,82
2023-01-08T14:36:00.198Z,82.5
2023-01-08T14:41:06.295Z,83
2023-01-08T14:46:12.361Z,83.5
2023-01-08T14:51:18.452Z,84
2023-01-08T14:56:24.549Z,84.5
2023-01-08T15:01:30.679Z,85
2023-01-08T15:06:36.734Z,85.5
2023-01-08T15:11:41.845Z,86
2023-01-08T15:16:47.959Z,86
2023-01-08T15:21:54.029Z,86
2023-01-08T15:27:00.230Z,86.5
2023-01-08T15:32:06.287Z,87
2023-01-08T15:37:12.384Z,87
2023-01-08T15:42:18.417Z,88
2023-01-08T15:47:24.526Z,89.5
2023-01-08T15:52:30.617Z,90.5
2023-01-08T15:57:36.767Z,91.5
2023-01-08T16:02:42.812Z,92.5
2023-01-08T16:07:48.917Z,92.5
2023-01-08T16:12:54.994Z,92.5
2023-01-08T16:18:00.118Z,92.5
2023-01-08T16:23:06.241Z,93
2023-01-08T16:28:12.322Z,93
2023-01-08T16:33:18.471Z,92.5
2023-01-08T16:38:24.507Z,92.5
2023-01-08T16:43:30.596Z,92
2023-01-08T16:48:36.693Z,91.5
2023-01-08T16:53:42.784Z,90.5
2023-01-08T16:58:48.877Z,90
2023-01-08T17:03:54.972Z,90
2023-01-08T17:09:01.131Z,90.5
2023-01-08T17:14:07.159Z,90.5
2023-01-08T17:19:13.253Z,90.5
2023-01-08T17:24:18.371Z,90.5
2023-01-08T17:29:24.464Z,90
2023-01-08T17:34:30.569Z,90.5
2023-01-08T17:39:36.656Z,91.5
2023-01-08T17:44:42.757Z,91.5
2023-01-08T17:49:48.873Z,91.5
2023-01-08T17:54:55.152Z,91.5
2023-01-08T18:00:01.050Z,92
2023-01-08T18:05:07.136Z,91.5
2023-01-08T18:10:13.230Z,91
2023-01-08T18:15:19.343Z,91.5
2023-01-08T18:20:25.421Z,91.5
2023-01-08T18:25:31.667Z,91.5
2023-01-08T18:30:36.630Z,91.5
2023-01-08T18:35:42.733Z,91.5
2023-01-08T18:40:48.849Z,91.5
2023-01-08T18:45:54.929Z,92
2023-01-08T18:56:07.111Z,92
2023-01-08T19:01:13.249Z,92.5
2023-01-08T19:06:19.314Z,93
2023-01-08T19:11:25.467Z,93
2023-01-08T19:16:31.506Z,92.5
2023-01-08T19:21:37.584Z,93
2023-01-08T19:26:43.695Z,93
2023-01-08T19:31:49.794Z,93
2023-01-08T19:36:54.904Z,93.5
2023-01-08T19:42:01.026Z,94
2023-01-08T19:47:07.170Z,94.5
2023-01-08T19:52:13.200Z,94.5
2023-01-08T19:57:19.300Z,95
2023-01-08T20:02:25.423Z,96
2023-01-08T20:07:31.544Z,96
2023-01-08T20:12:37.702Z,96
2023-01-08T20:17:43.675Z,97
2023-01-08T20:22:49.770Z,97.5
2023-01-08T20:27:55.894Z,98.5
2023-01-08T20:33:02.010Z,99
2023-01-08T20:38:08.060Z,98.5
2023-01-08T20:43:13.164Z,99.5
2023-01-08T20:48:19.267Z,99.5
2023-01-08T20:53:25.365Z,99.5
2023-01-08T20:58:31.487Z,99.5
2023-01-08T21:03:37.550Z,99.5
2023-01-08T21:08:43.645Z,99.5
2023-01-08T21:13:49.752Z,99.5
2023-01-08T21:18:55.858Z,99.5
2023-01-08T21:24:01.934Z,99.5
2023-01-08T21:29:08.029Z,99.5
2023-01-08T21:34:14.136Z,99.5
2023-01-08T21:39:20.288Z,99.5
2023-01-08T21:44:26.352Z,99.5
2023-01-08T21:49:31.608Z,99.5
2023-01-08T21:54:37.545Z,99.5
2023-01-08T21:59:43.635Z,99.5
2023-01-08T22:04:49.728Z,99.5
2023-01-08T22:09:55.822Z,99.5
2023-01-08T22:15:01.929Z,99.5
2023-01-08T22:20:08.018Z,99.5
2023-01-08T22:25:14.152Z,99.5
2023-01-08T22:30:20.270Z,99.5
2023-01-08T22:35:26.316Z,99.5
2023-01-08T22:40:32.394Z,99.5
2023-01-08T22:45:38.501Z,99.5
2023-01-08T22:50:44.608Z,99.5
2023-01-08T22:55:49.801Z,99.5
2023-01-08T23:00:55.836Z,99.5
2023-01-08T23:06:01.914Z,99.5
2023-01-08T23:11:07.989Z,99.5
2023-01-08T23:16:14.103Z,99.5
2023-01-08T23:21:20.209Z,99.5
2023-01-08T23:26:25.300Z,99.5
2023-01-08T23:31:31.408Z,99.5
2023-01-08T23:36:37.505Z,99.5
2023-01-08T23:41:43.623Z,99.5
2023-01-08T23:46:49.728Z,99.5
2023-01-08T23:51:55.794Z,99.5
2023-01-08T23:57:01.891Z,99.5
